createdAt,value
2022-09-18T00:00:59.413Z,8.41
2022-09-18T00:03:28.574Z,8.46
2022-09-18T00:05:55.043Z,8.62
2022-09-18T00:08:21.637Z,8.61
2022-09-18T00:10:48.161Z,8.52
2022-09-18T00:13:15.158Z,8.31
2022-09-18T00:15:42.152Z,8.43
2022-09-18T00:18:08.882Z,8.46
2022-09-18T00:20:36.957Z,8.38
2022-09-18T00:23:04.071Z,8.35
2022-09-18T00:25:32.252Z,8.31
2022-09-18T00:27:58.871Z,8.26
2022-09-18T00:30:25.389Z,8.14
2022-09-18T00:32:51.901Z,8.13
2022-09-18T00:35:18.380Z,8.09
2022-09-18T00:37:44.868Z,8.17
2022-09-18T00:40:11.459Z,8.13
2022-09-18T00:42:38.013Z,8.24
2022-09-18T00:45:04.820Z,8.30
2022-09-18T00:47:45.832Z,8.16
2022-09-18T00:50:18.531Z,8.15
2022-09-18T00:52:50.646Z,8.25
2022-09-18T00:55:20.907Z,8.28
2022-09-18T00:57:51.651Z,8.23
2022-09-18T01:00:18.263Z,8.04
2022-09-18T01:02:46.658Z,8.12
2022-09-18T01:05:14.866Z,8.22
2022-09-18T01:07:50.621Z,8.23
2022-09-18T01:10:37.592Z,8.16
2022-09-18T01:13:39.426Z,8.11
2022-09-18T01:16:24.466Z,8.18
2022-09-18T01:19:11.289Z,8.05
2022-09-18T01:22:11.712Z,7.94
2022-09-18T01:24:50.357Z,7.90
2022-09-18T01:27:33.372Z,7.83
2022-09-18T01:29:59.804Z,7.85
2022-09-18T01:32:34.450Z,7.79
2022-09-18T01:38:11.376Z,7.50
2022-09-18T01:41:12.604Z,7.55
2022-09-18T01:43:41.002Z,7.48
2022-09-18T01:46:14.023Z,7.44
2022-09-18T01:48:58.437Z,7.56
2022-09-18T01:51:52.840Z,7.59
2022-09-18T01:54:24.838Z,7.58
2022-09-18T01:56:57.217Z,7.58
2022-09-18T01:59:34.485Z,7.65
2022-09-18T02:02:05.106Z,7.57
2022-09-18T02:04:36.452Z,7.38
2022-09-18T02:07:25.617Z,7.30
2022-09-18T02:09:52.299Z,7.34
2022-09-18T02:12:23.285Z,7.23
2022-09-18T02:14:55.537Z,7.33
2022-09-18T02:17:29.133Z,7.20
2022-09-18T02:20:24.680Z,7.19
2022-09-18T02:22:54.738Z,7.10
2022-09-18T02:25:27.450Z,7.26
2022-09-18T02:27:55.983Z,7.19
2022-09-18T02:30:23.814Z,7.40
2022-09-18T02:32:55.605Z,7.37
2022-09-18T02:35:25.876Z,7.33
2022-09-18T02:38:03.009Z,7.33
2022-09-18T02:40:50.214Z,7.37
2022-09-18T02:43:58.444Z,7.39
2022-09-18T02:46:53.804Z,7.10
2022-09-18T02:49:28.199Z,7.27
2022-09-18T02:52:04.673Z,7.29
2022-09-18T02:54:50.187Z,7.18
2022-09-18T02:57:25.237Z,7.14
2022-09-18T02:59:56.845Z,7.14
2022-09-18T03:02:25.166Z,6.87
2022-09-18T03:04:52.317Z,7.06
2022-09-18T03:07:18.977Z,7.04
2022-09-18T03:09:45.549Z,7.04
2022-09-18T03:12:12.314Z,7.18
2022-09-18T03:14:39.123Z,7.04
2022-09-18T03:17:05.950Z,6.85
2022-09-18T03:19:32.641Z,6.89
2022-09-18T03:21:59.134Z,6.75
2022-09-18T03:24:25.717Z,6.74
2022-09-18T03:26:53.084Z,6.82
2022-09-18T03:29:19.582Z,6.73
2022-09-18T03:31:46.235Z,6.50
2022-09-18T03:34:12.795Z,6.59
2022-09-18T03:36:39.303Z,6.58
2022-09-18T03:39:05.876Z,6.59
2022-09-18T03:41:32.478Z,6.52
2022-09-18T03:43:59.056Z,6.36
2022-09-18T03:46:25.674Z,6.42
2022-09-18T03:48:53.112Z,6.64
2022-09-18T03:51:20.398Z,6.39
2022-09-18T03:53:47.957Z,6.52
2022-09-18T03:56:15.345Z,6.64
2022-09-18T03:58:42.012Z,6.47
2022-09-18T04:01:09.023Z,6.38
2022-09-18T04:03:36.029Z,6.40
2022-09-18T04:06:02.817Z,6.41
2022-09-18T04:08:29.626Z,6.40
2022-09-18T04:10:56.288Z,6.23
2022-09-18T04:13:22.852Z,6.26
2022-09-18T04:15:50.366Z,6.24
2022-09-18T04:18:18.234Z,6.17
2022-09-18T04:20:45.893Z,6.06
2022-09-18T04:23:14.389Z,6.31
2022-09-18T04:25:43.038Z,6.37
2022-09-18T04:28:10.926Z,6.11
2022-09-18T04:30:37.705Z,6.22
2022-09-18T04:33:05.002Z,6.34
2022-09-18T04:35:31.643Z,6.29
2022-09-18T04:37:58.171Z,6.63
2022-09-18T04:40:24.758Z,6.48
2022-09-18T04:42:51.273Z,6.38
2022-09-18T04:45:17.805Z,6.32
2022-09-18T04:47:46.064Z,6.24
2022-09-18T04:50:12.745Z,6.52
2022-09-18T04:52:39.236Z,6.53
2022-09-18T04:55:06.232Z,6.29
2022-09-18T04:57:32.795Z,6.26
2022-09-18T04:59:59.284Z,6.20
2022-09-18T05:02:25.834Z,6.19
2022-09-18T05:04:52.455Z,6.15
2022-09-18T05:07:18.979Z,6.01
2022-09-18T05:09:45.890Z,6.02
2022-09-18T05:12:12.425Z,6.29
2022-09-18T05:14:38.958Z,6.06
2022-09-18T05:17:05.959Z,6.21
2022-09-18T05:19:32.507Z,6.19
2022-09-18T05:21:58.982Z,6.13
2022-09-18T05:24:25.472Z,6.25
2022-09-18T05:26:51.988Z,6.06
2022-09-18T05:29:18.508Z,6.17
2022-09-18T05:31:45.013Z,6.11
2022-09-18T05:34:11.536Z,5.86
2022-09-18T05:36:38.022Z,5.86
2022-09-18T05:39:04.740Z,5.39
2022-09-18T05:41:31.234Z,5.30
2022-09-18T05:43:57.712Z,5.15
2022-09-18T05:46:24.238Z,5.17
2022-09-18T05:48:51.088Z,5.19
2022-09-18T05:51:20.752Z,5.26
2022-09-18T05:53:48.579Z,5.44
2022-09-18T05:56:16.675Z,5.35
2022-09-18T05:58:43.238Z,5.60
2022-09-18T06:01:09.949Z,5.75
2022-09-18T06:03:36.468Z,5.78
2022-09-18T06:06:03.028Z,5.94
2022-09-18T06:08:29.528Z,5.97
2022-09-18T06:11:00.399Z,6.12
2022-09-18T06:13:26.893Z,6.00
2022-09-18T06:15:53.577Z,6.11
2022-09-18T06:18:20.442Z,6.34
2022-09-18T06:20:57.993Z,6.30
2022-09-18T06:23:26.207Z,6.21
2022-09-18T06:25:59.474Z,6.35
2022-09-18T06:28:26.470Z,6.45
2022-09-18T06:30:53.305Z,6.52
2022-09-18T06:33:19.883Z,6.62
2022-09-18T06:35:49.137Z,6.75
2022-09-18T06:38:16.467Z,7.14
2022-09-18T06:40:50.664Z,7.14
2022-09-18T06:43:17.625Z,7.15
2022-09-18T06:45:44.158Z,7.26
2022-09-18T06:48:10.663Z,7.13
2022-09-18T06:50:37.136Z,7.33
2022-09-18T06:53:12.287Z,7.51
2022-09-18T06:55:39.333Z,7.57
2022-09-18T06:58:05.953Z,7.44
2022-09-18T07:00:32.549Z,7.58
2022-09-18T07:03:01.867Z,7.49
2022-09-18T07:05:30.774Z,7.76
2022-09-18T07:07:57.759Z,7.91
2022-09-18T07:10:24.993Z,8.20
2022-09-18T07:12:59.276Z,8.46
2022-09-18T07:15:27.036Z,8.73
2022-09-18T07:18:01.376Z,9.11
2022-09-18T07:20:29.460Z,9.25
2022-09-18T07:22:58.489Z,9.60
2022-09-18T07:25:27.120Z,9.95
2022-09-18T07:27:54.115Z,10.30
2022-09-18T07:30:21.616Z,10.62
2022-09-18T07:32:49.048Z,10.80
2022-09-18T07:35:16.026Z,11.32
2022-09-18T07:37:42.578Z,11.62
2022-09-18T07:40:12.253Z,11.98
2022-09-18T07:42:39.992Z,12.35
2022-09-18T07:45:06.986Z,12.65
2022-09-18T07:47:33.517Z,12.88
2022-09-18T07:50:00.205Z,13.20
2022-09-18T07:52:29.062Z,13.35
2022-09-18T07:54:55.661Z,13.65
2022-09-18T07:57:22.206Z,14.09
2022-09-18T07:59:48.683Z,14.49
2022-09-18T08:02:15.314Z,14.78
2022-09-18T08:04:41.937Z,14.97
2022-09-18T08:07:08.784Z,15.39
2022-09-18T08:09:35.324Z,15.59
2022-09-18T08:12:03.518Z,15.98
2022-09-18T08:14:30.239Z,16.25
2022-09-18T08:16:57.895Z,16.42
2022-09-18T08:19:24.449Z,16.54
2022-09-18T08:21:50.987Z,17.06
2022-09-18T08:24:17.862Z,17.20
2022-09-18T08:26:44.882Z,17.52
2022-09-18T08:29:18.772Z,18.04
2022-09-18T08:31:48.612Z,18.30
2022-09-18T08:34:15.177Z,18.57
2022-09-18T08:36:41.694Z,18.91
2022-09-18T08:39:08.365Z,19.33
2022-09-18T08:41:44.193Z,19.86
2022-09-18T08:44:18.178Z,20.03
2022-09-18T08:47:09.477Z,20.15
2022-09-18T08:49:53.425Z,20.17
2022-09-18T08:52:22.987Z,20.39
2022-09-18T08:55:14.467Z,20.52
2022-09-18T08:57:46.144Z,20.93
2022-09-18T09:00:32.147Z,21.49
2022-09-18T09:03:08.582Z,21.99
2022-09-18T09:05:45.321Z,22.25
2022-09-18T09:08:20.902Z,22.28
2022-09-18T09:10:55.944Z,22.54
2022-09-18T09:13:47.185Z,22.79
2022-09-18T09:16:23.942Z,23.06
2022-09-18T09:19:01.224Z,22.85
2022-09-18T09:21:45.797Z,22.37
2022-09-18T09:24:25.288Z,22.32
2022-09-18T09:26:55.131Z,22.59
2022-09-18T09:29:30.659Z,22.73
2022-09-18T09:32:12.883Z,23.11
2022-09-18T09:34:50.796Z,23.77
2022-09-18T09:37:23.994Z,24.00
2022-09-18T09:39:59.521Z,23.85
2022-09-18T09:42:39.250Z,23.44
2022-09-18T09:45:18.000Z,23.50
2022-09-18T09:47:52.205Z,23.54
2022-09-18T09:50:37.213Z,24.02
2022-09-18T09:53:09.115Z,24.15
2022-09-18T09:56:10.503Z,24.44
2022-09-18T09:58:50.670Z,24.71
2022-09-18T10:01:41.033Z,24.78
2022-09-18T10:04:38.033Z,25.11
2022-09-18T10:07:12.729Z,25.38
2022-09-18T10:09:54.426Z,25.79
2022-09-18T10:12:47.926Z,26.19
2022-09-18T10:15:19.699Z,26.15
2022-09-18T10:17:51.052Z,25.49
2022-09-18T10:20:23.854Z,25.09
2022-09-18T10:22:50.395Z,25.20
2022-09-18T10:25:29.266Z,25.70
2022-09-18T10:27:55.910Z,26.25
2022-09-18T10:30:22.527Z,26.66
2022-09-18T10:32:49.334Z,26.86
2022-09-18T10:35:31.181Z,27.10
2022-09-18T10:37:58.331Z,26.82
2022-09-18T10:40:40.657Z,26.16
2022-09-18T10:43:17.058Z,25.96
2022-09-18T10:45:52.372Z,26.08
2022-09-18T10:48:23.532Z,26.31
2022-09-18T10:50:57.344Z,26.60
2022-09-18T10:53:35.121Z,27.13
2022-09-18T10:56:20.106Z,27.60
2022-09-18T10:58:46.808Z,27.84
2022-09-18T11:01:15.363Z,28.06
2022-09-18T11:04:15.361Z,28.23
2022-09-18T11:06:45.713Z,27.93
2022-09-18T11:09:18.543Z,28.04
2022-09-18T11:11:51.282Z,28.28
2022-09-18T11:14:26.320Z,28.48
2022-09-18T11:16:59.879Z,28.02
2022-09-18T11:19:31.711Z,27.91
2022-09-18T11:22:02.791Z,27.98
2022-09-18T11:24:34.822Z,28.13
2022-09-18T11:27:25.119Z,28.61
2022-09-18T11:29:51.660Z,28.40
2022-09-18T11:32:30.540Z,28.88
2022-09-18T11:35:02.015Z,28.99
2022-09-18T11:37:37.446Z,28.59
2022-09-18T11:40:15.398Z,28.72
2022-09-18T11:42:44.982Z,28.58
2022-09-18T11:45:27.000Z,28.87
2022-09-18T11:48:16.166Z,29.06
2022-09-18T11:50:43.211Z,29.03
2022-09-18T11:53:27.895Z,28.76
2022-09-18T11:56:08.113Z,29.00
2022-09-18T11:59:00.405Z,29.52
2022-09-18T12:01:49.097Z,29.43
2022-09-18T12:04:20.951Z,29.12
2022-09-18T12:07:00.047Z,29.29
2022-09-18T12:09:58.301Z,29.58
2022-09-18T12:12:34.574Z,28.53
2022-09-18T12:15:09.072Z,28.51
2022-09-18T12:17:50.481Z,28.75
2022-09-18T12:20:28.223Z,28.77
2022-09-18T12:23:02.748Z,29.17
2022-09-18T12:25:43.644Z,29.29
2022-09-18T12:28:23.342Z,29.46
2022-09-18T12:31:06.381Z,29.42
2022-09-18T12:33:50.925Z,29.58
2022-09-18T12:37:05.127Z,29.11
2022-09-18T12:39:50.832Z,29.32
2022-09-18T12:42:32.179Z,29.68
2022-09-18T12:44:58.610Z,29.79
2022-09-18T12:48:04.012Z,30.01
2022-09-18T12:50:55.040Z,30.01
2022-09-18T12:53:33.531Z,30.09
2022-09-18T12:56:03.084Z,30.22
2022-09-18T12:58:35.532Z,30.26
2022-09-18T13:01:14.928Z,29.63
2022-09-18T13:03:43.879Z,30.06
2022-09-18T13:06:16.254Z,30.51
2022-09-18T13:08:46.359Z,30.78
2022-09-18T13:11:19.818Z,30.65
2022-09-18T13:13:57.194Z,30.65
2022-09-18T13:16:41.118Z,30.62
2022-09-18T13:19:26.077Z,30.59
2022-09-18T13:21:53.871Z,28.98
2022-09-18T13:24:25.137Z,28.85
2022-09-18T13:26:52.646Z,29.29
2022-09-18T13:29:49.965Z,29.72
2022-09-18T13:32:21.320Z,29.95
2022-09-18T13:35:19.698Z,29.60
2022-09-18T13:37:47.787Z,29.09
2022-09-18T13:40:37.151Z,29.31
2022-09-18T13:43:15.500Z,29.38
2022-09-18T13:45:42.058Z,29.43
2022-09-18T13:48:26.277Z,29.55
2022-09-18T13:51:02.096Z,29.44
2022-09-18T13:53:43.492Z,29.38
2022-09-18T13:56:15.176Z,29.38
2022-09-18T13:58:59.000Z,29.34
2022-09-18T14:01:40.625Z,29.27
2022-09-18T14:04:44.367Z,29.48
2022-09-18T14:07:17.098Z,29.53
2022-09-18T14:10:03.023Z,29.33
2022-09-18T14:12:34.355Z,29.20
2022-09-18T14:15:21.000Z,29.38
2022-09-18T14:18:06.743Z,29.27
2022-09-18T14:20:34.370Z,29.27
2022-09-18T14:23:35.531Z,29.27
2022-09-18T14:26:07.993Z,29.36
2022-09-18T14:28:35.864Z,29.38
2022-09-18T14:31:28.251Z,29.23
2022-09-18T14:34:00.841Z,29.17
2022-09-18T14:36:27.369Z,29.25
2022-09-18T14:38:53.964Z,29.15
2022-09-18T14:41:28.610Z,29.11
2022-09-18T14:44:01.055Z,28.28
2022-09-18T14:46:28.324Z,27.73
2022-09-18T14:48:55.674Z,27.59
2022-09-18T14:51:25.488Z,27.29
2022-09-18T14:53:55.013Z,27.21
2022-09-18T14:56:32.269Z,27.21
2022-09-18T14:59:07.076Z,27.17
2022-09-18T15:01:35.999Z,27.27
2022-09-18T15:04:04.927Z,27.04
2022-09-18T15:06:38.582Z,26.88
2022-09-18T15:09:07.780Z,26.74
2022-09-18T15:11:52.608Z,26.61
2022-09-18T15:14:28.201Z,26.58
2022-09-18T15:17:00.909Z,26.28
2022-09-18T15:19:29.042Z,26.10
2022-09-18T15:21:57.147Z,25.79
2022-09-18T15:24:23.998Z,25.58
2022-09-18T15:26:57.248Z,25.54
2022-09-18T15:29:28.221Z,25.54
2022-09-18T15:31:55.618Z,25.63
2022-09-18T15:34:27.927Z,25.64
2022-09-18T15:37:01.246Z,25.52
2022-09-18T15:39:38.006Z,25.19
2022-09-18T15:42:22.622Z,24.70
2022-09-18T15:44:55.921Z,24.34
2022-09-18T15:47:25.589Z,23.87
2022-09-18T15:49:52.812Z,23.35
2022-09-18T15:52:35.489Z,23.05
2022-09-18T15:55:15.420Z,22.54
2022-09-18T15:57:49.891Z,22.23
2022-09-18T16:00:21.258Z,22.06
2022-09-18T16:02:59.702Z,21.72
2022-09-18T16:05:31.111Z,21.57
2022-09-18T16:08:04.839Z,21.35
2022-09-18T16:10:37.235Z,21.21
2022-09-18T16:13:15.953Z,21.14
2022-09-18T16:15:47.639Z,21.06
2022-09-18T16:18:29.218Z,20.89
2022-09-18T16:20:57.627Z,20.78
2022-09-18T16:23:31.898Z,20.62
2022-09-18T16:26:07.676Z,20.45
2022-09-18T16:28:43.034Z,20.23
2022-09-18T16:31:12.386Z,20.33
2022-09-18T16:33:51.211Z,20.16
2022-09-18T16:36:25.645Z,20.08
2022-09-18T16:38:52.229Z,19.97
2022-09-18T16:41:18.776Z,19.87
2022-09-18T16:43:45.317Z,19.95
2022-09-18T16:46:14.088Z,19.91
2022-09-18T16:48:40.788Z,19.92
2022-09-18T16:51:07.657Z,20.04
2022-09-18T16:53:35.705Z,20.04
2022-09-18T16:56:04.384Z,20.10
2022-09-18T16:58:30.947Z,20.19
2022-09-18T17:00:57.974Z,20.28
2022-09-18T17:03:26.884Z,20.17
2022-09-18T17:05:53.385Z,20.13
2022-09-18T17:08:19.891Z,20.10
2022-09-18T17:10:47.089Z,20.14
2022-09-18T17:13:14.032Z,20.24
2022-09-18T17:15:40.930Z,20.20
2022-09-18T17:18:09.024Z,20.20
2022-09-18T17:20:38.682Z,20.08
2022-09-18T17:23:05.309Z,19.90
2022-09-18T17:25:31.839Z,19.99
2022-09-18T17:27:58.819Z,19.81
2022-09-18T17:30:25.796Z,19.84
2022-09-18T17:32:52.320Z,19.67
2022-09-18T17:35:18.924Z,19.52
2022-09-18T17:37:45.497Z,19.16
2022-09-18T17:40:12.110Z,19.04
2022-09-18T17:42:39.134Z,18.77
2022-09-18T17:45:06.254Z,18.50
2022-09-18T17:47:32.849Z,18.09
2022-09-18T17:49:59.457Z,18.11
2022-09-18T17:52:25.988Z,17.86
2022-09-18T17:54:52.507Z,17.63
2022-09-18T17:57:19.034Z,17.53
2022-09-18T17:59:45.807Z,17.27
2022-09-18T18:02:13.341Z,17.11
2022-09-18T18:04:39.966Z,17.09
2022-09-18T18:07:07.021Z,17.02
2022-09-18T18:09:36.717Z,16.92
2022-09-18T18:12:04.991Z,16.80
2022-09-18T18:14:32.292Z,16.68
2022-09-18T18:17:00.793Z,16.61
2022-09-18T18:19:27.909Z,16.43
2022-09-18T18:21:54.627Z,16.15
2022-09-18T18:24:21.513Z,16.17
2022-09-18T18:26:48.490Z,15.96
2022-09-18T18:29:17.835Z,15.98
2022-09-18T18:31:45.257Z,15.84
2022-09-18T18:36:57.542Z,15.90
2022-09-18T18:39:24.113Z,15.70
2022-09-18T18:41:50.728Z,15.60
2022-09-18T18:44:17.529Z,15.60
2022-09-18T18:46:44.384Z,15.42
2022-09-18T18:49:14.633Z,15.26
2022-09-18T18:52:22.639Z,15.24
2022-09-18T18:54:39.624Z,15.07
2022-09-18T18:57:06.283Z,15.05
2022-09-18T18:59:33.152Z,14.97
2022-09-18T19:01:59.771Z,15.11
2022-09-18T19:04:26.494Z,15.00
2022-09-18T19:06:53.518Z,15.00
2022-09-18T19:09:24.370Z,14.84
2022-09-18T19:11:52.906Z,14.95
2022-09-18T19:14:25.986Z,14.91
2022-09-18T19:16:53.806Z,14.82
2022-09-18T19:19:23.421Z,14.74
2022-09-18T19:21:50.405Z,14.71
2022-09-18T19:24:18.644Z,14.64
2022-09-18T19:26:46.624Z,14.58
2022-09-18T19:29:15.881Z,14.57
2022-09-18T19:31:43.942Z,14.42
2022-09-18T19:34:12.588Z,14.30
2022-09-18T19:36:39.688Z,14.25
2022-09-18T19:39:07.808Z,14.27
2022-09-18T19:41:44.619Z,14.21
2022-09-18T19:44:26.900Z,14.08
2022-09-18T19:46:55.792Z,13.89
2022-09-18T19:49:28.828Z,13.79
2022-09-18T19:51:56.724Z,13.56
2022-09-18T19:54:23.558Z,13.56
2022-09-18T19:56:50.274Z,13.50
2022-09-18T19:59:19.512Z,13.51
2022-09-18T20:01:46.441Z,13.54
2022-09-18T20:04:15.889Z,13.38
2022-09-18T20:06:46.444Z,13.28
2022-09-18T20:09:13.005Z,13.24
2022-09-18T20:11:39.493Z,13.04
2022-09-18T20:14:06.012Z,13.09
2022-09-18T20:16:35.101Z,13.03
2022-09-18T20:19:01.815Z,12.79
2022-09-18T20:21:30.895Z,12.69
2022-09-18T20:23:59.320Z,12.83
2022-09-18T20:26:26.645Z,12.67
2022-09-18T20:28:53.562Z,12.74
2022-09-18T20:31:20.921Z,12.72
2022-09-18T20:33:47.613Z,12.52
2022-09-18T20:36:14.279Z,12.57
2022-09-18T20:38:41.954Z,12.49
2022-09-18T20:41:13.480Z,12.32
2022-09-18T20:43:41.851Z,12.14
2022-09-18T20:46:17.932Z,12.13
2022-09-18T20:48:53.021Z,12.12
2022-09-18T20:51:19.880Z,12.23
2022-09-18T20:53:46.534Z,12.12
2022-09-18T20:56:14.758Z,12.23
2022-09-18T20:58:44.848Z,12.31
2022-09-18T21:01:13.895Z,12.27
2022-09-18T21:03:45.055Z,12.20
2022-09-18T21:06:22.781Z,12.20
2022-09-18T21:08:53.519Z,11.84
2022-09-18T21:11:41.215Z,11.84
2022-09-18T21:14:09.938Z,11.73
2022-09-18T21:16:42.878Z,11.70
2022-09-18T21:19:16.127Z,11.71
2022-09-18T21:21:42.840Z,11.70
2022-09-18T21:24:09.572Z,11.67
2022-09-18T21:26:37.820Z,11.84
2022-09-18T21:29:26.164Z,11.52
2022-09-18T21:31:55.345Z,11.47
2022-09-18T21:34:26.623Z,11.42
2022-09-18T21:37:00.084Z,11.18
2022-09-18T21:39:30.532Z,11.17
2022-09-18T21:41:58.712Z,11.13
2022-09-18T21:44:27.730Z,11.10
2022-09-18T21:47:00.250Z,10.97
2022-09-18T21:49:29.050Z,11.07
2022-09-18T21:51:58.067Z,10.89
2022-09-18T21:54:24.713Z,11.04
2022-09-18T21:56:51.986Z,11.07
2022-09-18T21:59:25.412Z,11.09
2022-09-18T22:01:54.759Z,11.01
2022-09-18T22:04:26.178Z,10.81
2022-09-18T22:06:55.337Z,10.93
2022-09-18T22:09:24.388Z,10.83
2022-09-18T22:11:51.898Z,11.10
2022-09-18T22:14:25.381Z,11.02
2022-09-18T22:16:53.699Z,10.86
2022-09-18T22:19:20.620Z,10.68
2022-09-18T22:21:49.748Z,10.65
2022-09-18T22:24:19.218Z,10.58
2022-09-18T22:27:00.757Z,10.61
2022-09-18T22:29:30.356Z,10.46
2022-09-18T22:31:57.887Z,10.63
2022-09-18T22:34:26.910Z,10.69
2022-09-18T22:36:53.947Z,10.43
2022-09-18T22:39:21.742Z,10.35
2022-09-18T22:41:49.317Z,10.23
2022-09-18T22:44:16.193Z,10.27
2022-09-18T22:46:45.058Z,10.30
2022-09-18T22:49:16.895Z,10.38
2022-09-18T22:51:44.760Z,10.35
2022-09-18T22:54:12.758Z,10.31
2022-09-18T22:56:42.629Z,10.34
2022-09-18T22:59:11.577Z,10.34
2022-09-18T23:01:51.085Z,10.38
2022-09-18T23:04:24.037Z,10.42
2022-09-18T23:06:51.145Z,10.43
2022-09-18T23:09:19.236Z,10.34
2022-09-18T23:11:48.460Z,10.25
2022-09-18T23:14:18.416Z,10.29
2022-09-18T23:16:45.370Z,10.18
2022-09-18T23:19:18.284Z,10.19
2022-09-18T23:21:44.984Z,10.15
2022-09-18T23:24:12.386Z,10.12
2022-09-18T23:26:41.238Z,10.06
2022-09-18T23:29:10.383Z,10.09
2022-09-18T23:31:39.712Z,9.98
2022-09-18T23:34:10.781Z,9.95
2022-09-18T23:36:40.242Z,9.92
2022-09-18T23:39:10.941Z,9.78
2022-09-18T23:41:38.293Z,9.96
2022-09-18T23:44:07.435Z,10.05
2022-09-18T23:46:34.281Z,9.90
2022-09-18T23:49:01.284Z,9.94
2022-09-18T23:51:33.148Z,9.91
2022-09-18T23:54:02.020Z,9.83
2022-09-18T23:56:31.226Z,9.83
2022-09-18T23:59:00.716Z,9.76
